createdAt,value
2022-08-28T00:00:32.930Z,19.63
2022-08-28T00:03:02.820Z,25.60
2022-08-28T00:05:33.410Z,27.33
2022-08-28T00:08:01.890Z,23.85
2022-08-28T00:10:30.301Z,18.30
2022-08-28T00:12:58.825Z,24.40
2022-08-28T00:15:29.696Z,23.63
2022-08-28T00:17:59.028Z,21.88
2022-08-28T00:20:29.793Z,19.08
2022-08-28T00:22:59.615Z,20.25
2022-08-28T00:25:30.316Z,25.73
2022-08-28T00:28:01.066Z,20.58
2022-08-28T00:30:36.889Z,23.40
2022-08-28T00:33:08.176Z,23.80
2022-08-28T00:35:41.172Z,24.17
2022-08-28T00:38:10.053Z,20.50
2022-08-28T00:40:39.499Z,18.73
2022-08-28T00:43:10.139Z,22.38
2022-08-28T00:45:40.072Z,18.67
2022-08-28T00:48:09.014Z,21.75
2022-08-28T00:51:00.538Z,19.33
2022-08-28T00:53:30.083Z,20.08
2022-08-28T00:56:04.236Z,18.05
2022-08-28T00:58:39.371Z,18.42
2022-08-28T01:01:07.991Z,20.33
2022-08-28T01:03:37.751Z,18.55
2022-08-28T01:06:08.615Z,17.92
2022-08-28T01:08:38.870Z,22.23
2022-08-28T01:11:08.318Z,23.35
2022-08-28T01:13:39.471Z,17.10
2022-08-28T01:16:08.571Z,15.85
2022-08-28T01:18:36.773Z,18.13
2022-08-28T01:21:20.663Z,22.80
2022-08-28T01:23:57.786Z,16.35
2022-08-28T01:26:26.808Z,19.60
2022-08-28T01:28:55.008Z,23.13
2022-08-28T01:31:23.074Z,22.10
2022-08-28T01:33:51.156Z,19.88
2022-08-28T01:36:21.544Z,21.88
2022-08-28T01:38:54.060Z,18.05
2022-08-28T01:41:23.922Z,18.40
2022-08-28T01:43:53.775Z,18.38
2022-08-28T01:46:21.903Z,22.67
2022-08-28T01:48:50.517Z,17.98
2022-08-28T01:51:21.563Z,21.75
2022-08-28T01:53:52.511Z,22.30
2022-08-28T01:56:20.984Z,14.75
2022-08-28T01:58:50.473Z,20.52
2022-08-28T02:01:21.754Z,18.38
2022-08-28T02:03:53.031Z,23.83
2022-08-28T02:06:21.282Z,18.98
2022-08-28T02:08:49.945Z,17.60
2022-08-28T02:11:18.424Z,19.83
2022-08-28T02:13:46.485Z,21.95
2022-08-28T02:16:20.661Z,22.35
2022-08-28T02:18:49.066Z,19.70
2022-08-28T02:21:17.320Z,19.60
2022-08-28T02:23:46.519Z,22.05
2022-08-28T02:26:16.050Z,15.98
2022-08-28T02:28:44.382Z,16.00
2022-08-28T02:31:13.064Z,18.65
2022-08-28T02:33:45.329Z,23.33
2022-08-28T02:36:15.860Z,22.55
2022-08-28T02:38:44.826Z,17.33
2022-08-28T02:41:13.406Z,19.90
2022-08-28T02:43:42.003Z,18.20
2022-08-28T02:46:10.816Z,27.25
2022-08-28T02:48:40.456Z,21.05
2022-08-28T02:51:12.932Z,18.67
2022-08-28T02:53:41.580Z,16.05
2022-08-28T02:56:10.546Z,18.92
2022-08-28T02:58:39.501Z,22.27
2022-08-28T03:01:09.938Z,21.42
2022-08-28T03:03:38.152Z,20.42
2022-08-28T03:06:12.565Z,18.23
2022-08-28T03:08:41.682Z,27.15
2022-08-28T03:11:10.032Z,23.17
2022-08-28T03:13:38.107Z,19.05
2022-08-28T03:16:06.435Z,21.58
2022-08-28T03:18:34.621Z,21.98
2022-08-28T03:21:02.758Z,22.45
2022-08-28T03:23:32.585Z,25.73
2022-08-28T03:26:02.745Z,20.48
2022-08-28T03:28:39.397Z,22.50
2022-08-28T03:31:08.107Z,18.13
2022-08-28T03:33:36.560Z,20.60
2022-08-28T03:36:05.326Z,23.05
2022-08-28T03:38:34.904Z,21.67
2022-08-28T03:41:03.064Z,16.48
2022-08-28T03:43:31.543Z,17.25
2022-08-28T03:46:03.495Z,21.88
2022-08-28T03:48:33.987Z,19.38
2022-08-28T03:51:02.606Z,16.60
2022-08-28T03:53:31.311Z,18.45
2022-08-28T03:56:00.915Z,15.15
2022-08-28T03:58:29.714Z,18.23
2022-08-28T04:00:57.825Z,16.27
2022-08-28T04:03:25.936Z,21.17
2022-08-28T04:05:54.830Z,17.20
2022-08-28T04:08:23.511Z,20.52
2022-08-28T04:10:52.377Z,17.60
2022-08-28T04:13:22.816Z,13.68
2022-08-28T04:15:58.614Z,16.88
2022-08-28T04:18:27.013Z,17.25
2022-08-28T04:21:02.390Z,18.15
2022-08-28T04:23:30.740Z,17.75
2022-08-28T04:25:59.205Z,24.88
2022-08-28T04:28:28.940Z,19.17
2022-08-28T04:30:57.007Z,20.92
2022-08-28T04:33:26.063Z,19.40
2022-08-28T04:35:54.758Z,16.25
2022-08-28T04:38:23.396Z,19.30
2022-08-28T04:40:51.452Z,20.88
2022-08-28T04:43:19.493Z,17.08
2022-08-28T04:45:49.028Z,17.40
2022-08-28T04:48:17.360Z,21.80
2022-08-28T04:50:47.825Z,15.57
2022-08-28T04:53:17.557Z,21.38
2022-08-28T04:55:53.507Z,16.70
2022-08-28T04:58:23.783Z,17.63
2022-08-28T05:00:54.964Z,16.27
2022-08-28T05:03:23.668Z,21.73
2022-08-28T05:05:53.412Z,14.60
2022-08-28T05:08:23.601Z,16.23
2022-08-28T05:10:53.020Z,17.08
2022-08-28T05:13:21.410Z,15.27
2022-08-28T05:15:51.513Z,23.13
2022-08-28T05:18:23.942Z,16.90
2022-08-28T05:20:54.948Z,16.77
2022-08-28T05:23:25.490Z,20.98
2022-08-28T05:25:53.961Z,16.08
2022-08-28T05:28:23.759Z,17.73
2022-08-28T05:30:52.026Z,20.10
2022-08-28T05:33:21.588Z,18.20
2022-08-28T05:35:49.667Z,16.65
2022-08-28T05:38:18.262Z,21.70
2022-08-28T05:40:49.153Z,20.70
2022-08-28T05:43:18.847Z,20.95
2022-08-28T05:45:47.003Z,14.90
2022-08-28T05:48:16.331Z,18.08
2022-08-28T05:50:47.406Z,18.92
2022-08-28T05:53:17.420Z,15.15
2022-08-28T05:55:45.551Z,17.05
2022-08-28T05:58:34.755Z,20.17
2022-08-28T06:01:11.627Z,18.33
2022-08-28T06:03:41.332Z,19.38
2022-08-28T06:06:12.574Z,18.05
2022-08-28T06:08:58.234Z,16.38
2022-08-28T06:11:29.603Z,21.73
2022-08-28T06:14:01.497Z,14.32
2022-08-28T06:16:30.919Z,23.80
2022-08-28T06:18:59.468Z,19.63
2022-08-28T06:21:29.262Z,21.90
2022-08-28T06:23:58.074Z,20.88
2022-08-28T06:26:27.356Z,15.45
2022-08-28T06:28:56.230Z,15.35
2022-08-28T06:31:26.493Z,26.35
2022-08-28T06:33:57.110Z,16.80
2022-08-28T06:36:27.336Z,20.55
2022-08-28T06:38:59.672Z,17.35
2022-08-28T06:41:32.253Z,18.08
2022-08-28T06:44:00.389Z,17.65
2022-08-28T06:46:30.409Z,23.50
2022-08-28T06:48:58.519Z,20.42
2022-08-28T06:51:26.593Z,19.75
2022-08-28T06:53:57.451Z,18.35
2022-08-28T06:56:27.178Z,18.38
2022-08-28T06:58:57.067Z,19.38
2022-08-28T07:01:29.247Z,20.35
2022-08-28T07:04:00.745Z,16.38
2022-08-28T07:06:31.604Z,19.23
2022-08-28T07:09:01.077Z,19.38
2022-08-28T07:11:35.197Z,17.52
2022-08-28T07:14:06.565Z,19.75
2022-08-28T07:16:38.286Z,21.55
2022-08-28T07:19:07.895Z,20.77
2022-08-28T07:21:39.856Z,17.02
2022-08-28T07:24:10.660Z,21.00
2022-08-28T07:26:41.098Z,18.27
2022-08-28T07:29:11.472Z,24.02
2022-08-28T07:31:41.592Z,21.00
2022-08-28T07:34:10.620Z,19.95
2022-08-28T07:36:39.406Z,21.10
2022-08-28T07:39:10.433Z,20.70
2022-08-28T07:41:42.367Z,20.40
2022-08-28T07:44:32.150Z,17.58
2022-08-28T07:47:02.292Z,17.23
2022-08-28T07:49:31.451Z,18.40
2022-08-28T07:51:59.502Z,19.77
2022-08-28T07:54:28.997Z,18.15
2022-08-28T07:56:57.049Z,18.83
2022-08-28T07:59:25.106Z,19.92
2022-08-28T08:01:54.443Z,26.58
2022-08-28T08:04:24.440Z,17.90
2022-08-28T08:06:57.758Z,14.20
2022-08-28T08:09:27.256Z,19.00
2022-08-28T08:11:58.837Z,15.82
2022-08-28T08:14:27.063Z,14.93
2022-08-28T08:16:55.120Z,20.02
2022-08-28T08:19:23.184Z,18.67
2022-08-28T08:21:54.866Z,18.40
2022-08-28T08:24:26.399Z,19.45
2022-08-28T08:27:00.385Z,17.33
2022-08-28T08:29:31.403Z,16.38
2022-08-28T08:32:05.407Z,17.15
2022-08-28T08:34:35.332Z,14.70
2022-08-28T08:37:03.603Z,17.65
2022-08-28T08:39:32.442Z,15.00
2022-08-28T08:42:04.041Z,16.35
2022-08-28T08:44:35.531Z,19.40
2022-08-28T08:47:14.029Z,18.05
2022-08-28T08:49:48.456Z,16.48
2022-08-28T08:52:30.913Z,20.10
2022-08-28T08:55:08.660Z,14.02
2022-08-28T08:57:40.139Z,15.38
2022-08-28T09:00:15.040Z,19.48
2022-08-28T09:02:48.518Z,18.33
2022-08-28T09:05:20.992Z,17.27
2022-08-28T09:07:56.704Z,16.42
2022-08-28T09:10:26.531Z,17.13
2022-08-28T09:13:04.938Z,19.05
2022-08-28T09:15:35.325Z,15.90
2022-08-28T09:18:11.839Z,17.33
2022-08-28T09:20:42.006Z,14.20
2022-08-28T09:23:12.348Z,16.30
2022-08-28T09:25:53.937Z,14.10
2022-08-28T09:28:28.276Z,17.42
2022-08-28T09:31:03.671Z,14.25
2022-08-28T09:33:38.455Z,16.85
2022-08-28T09:36:31.616Z,16.38
2022-08-28T09:39:13.652Z,17.63
2022-08-28T09:42:07.720Z,15.82
2022-08-28T09:44:49.031Z,22.00
2022-08-28T09:47:46.177Z,14.23
2022-08-28T09:50:28.645Z,14.18
2022-08-28T09:52:59.041Z,11.73
2022-08-28T09:55:38.491Z,21.75
2022-08-28T09:58:07.719Z,15.80
2022-08-28T10:00:41.667Z,16.40
2022-08-28T10:03:17.214Z,9.20
2022-08-28T10:06:03.997Z,14.07
2022-08-28T10:08:54.985Z,17.35
2022-08-28T10:11:31.826Z,16.17
2022-08-28T10:14:08.899Z,14.02
2022-08-28T10:16:47.246Z,14.32
2022-08-28T10:19:29.461Z,11.93
2022-08-28T10:22:09.582Z,12.10
2022-08-28T10:25:03.956Z,12.23
2022-08-28T10:27:45.888Z,11.77
2022-08-28T10:30:18.338Z,12.13
2022-08-28T10:33:12.639Z,11.82
2022-08-28T10:35:50.483Z,7.32
2022-08-28T10:38:21.674Z,15.55
2022-08-28T10:40:56.799Z,11.38
2022-08-28T10:43:31.703Z,11.15
2022-08-28T10:46:04.845Z,14.50
2022-08-28T10:48:41.314Z,10.65
2022-08-28T10:51:17.421Z,11.10
2022-08-28T10:53:50.287Z,10.05
2022-08-28T10:56:21.811Z,15.57
2022-08-28T10:58:53.205Z,11.27
2022-08-28T11:01:28.450Z,11.63
2022-08-28T11:04:00.930Z,10.30
2022-08-28T11:06:34.371Z,18.42
2022-08-28T11:09:24.830Z,10.15
2022-08-28T11:12:01.092Z,13.65
2022-08-28T11:14:33.844Z,11.82
2022-08-28T11:17:06.052Z,12.85
2022-08-28T11:20:04.340Z,16.60
2022-08-28T11:22:38.421Z,11.13
2022-08-28T11:25:17.710Z,13.27
2022-08-28T11:28:28.326Z,15.10
2022-08-28T11:31:29.694Z,9.50
2022-08-28T11:33:59.256Z,9.50
2022-08-28T11:37:01.801Z,14.07
2022-08-28T11:39:30.573Z,10.52
2022-08-28T11:42:38.335Z,10.25
2022-08-28T11:45:07.392Z,12.43
2022-08-28T11:47:54.083Z,16.77
2022-08-28T11:50:33.867Z,12.68
2022-08-28T11:53:37.269Z,8.70
2022-08-28T11:56:34.262Z,14.30
2022-08-28T11:59:18.363Z,13.98
2022-08-28T12:01:47.027Z,12.02
2022-08-28T12:04:19.583Z,10.73
2022-08-28T12:06:54.453Z,11.70
2022-08-28T12:09:47.182Z,14.20
2022-08-28T12:12:50.923Z,13.00
2022-08-28T12:15:41.579Z,10.40
2022-08-28T12:18:18.055Z,11.75
2022-08-28T12:21:00.913Z,12.45
2022-08-28T12:23:39.580Z,11.85
2022-08-28T12:26:13.168Z,11.52
2022-08-28T12:28:46.580Z,9.85
2022-08-28T12:31:58.339Z,8.98
2022-08-28T12:34:35.964Z,12.10
2022-08-28T12:37:06.588Z,10.82
2022-08-28T12:39:34.975Z,10.05
2022-08-28T12:42:04.762Z,12.32
2022-08-28T12:44:33.725Z,9.70
2022-08-28T12:47:01.859Z,10.15
2022-08-28T12:49:34.377Z,9.52
2022-08-28T12:52:16.673Z,8.98
2022-08-28T12:54:46.014Z,11.98
2022-08-28T12:57:18.221Z,8.38
2022-08-28T12:59:47.899Z,12.32
2022-08-28T13:02:50.756Z,7.30
2022-08-28T13:05:39.725Z,8.20
2022-08-28T13:08:10.169Z,10.52
2022-08-28T13:10:40.199Z,11.60
2022-08-28T13:13:19.273Z,10.13
2022-08-28T13:15:51.367Z,10.05
2022-08-28T13:18:46.032Z,14.30
2022-08-28T13:21:32.689Z,10.70
2022-08-28T13:24:39.786Z,11.70
2022-08-28T13:27:17.158Z,6.43
2022-08-28T13:30:02.779Z,10.07
2022-08-28T13:32:32.599Z,8.02
2022-08-28T13:35:08.707Z,10.88
2022-08-28T13:37:45.707Z,10.90
2022-08-28T13:40:38.070Z,10.50
2022-08-28T13:43:11.006Z,9.50
2022-08-28T13:45:44.665Z,11.15
2022-08-28T13:48:14.074Z,7.97
2022-08-28T13:50:46.560Z,11.60
2022-08-28T13:53:16.815Z,10.90
2022-08-28T13:55:45.056Z,5.90
2022-08-28T13:58:13.908Z,9.63
2022-08-28T14:00:46.113Z,6.05
2022-08-28T14:03:43.392Z,11.27
2022-08-28T14:06:14.187Z,8.40
2022-08-28T14:08:44.376Z,10.60
2022-08-28T14:11:15.133Z,10.02
2022-08-28T14:13:47.028Z,7.40
2022-08-28T14:16:25.742Z,10.32
2022-08-28T14:18:54.362Z,9.23
2022-08-28T14:21:24.438Z,6.13
2022-08-28T14:23:52.508Z,7.68
2022-08-28T14:26:20.653Z,9.38
2022-08-28T14:28:48.893Z,5.60
2022-08-28T14:31:17.005Z,7.40
2022-08-28T14:33:46.476Z,8.30
2022-08-28T14:36:20.280Z,7.50
2022-08-28T14:38:50.227Z,10.55
2022-08-28T14:41:21.234Z,12.57
2022-08-28T14:43:49.504Z,7.80
2022-08-28T14:46:19.217Z,6.22
2022-08-28T14:48:49.366Z,8.70
2022-08-28T14:51:18.718Z,8.30
2022-08-28T14:53:46.738Z,5.45
2022-08-28T14:56:27.204Z,7.60
2022-08-28T14:58:55.671Z,8.20
2022-08-28T15:01:25.537Z,11.35
2022-08-28T15:04:11.047Z,9.65
2022-08-28T15:06:42.144Z,11.88
2022-08-28T15:09:10.889Z,8.40
2022-08-28T15:11:39.305Z,7.55
2022-08-28T15:14:08.736Z,9.20
2022-08-28T15:16:40.304Z,9.57
2022-08-28T15:19:12.184Z,10.45
2022-08-28T15:21:43.463Z,11.15
2022-08-28T15:24:11.744Z,14.60
2022-08-28T15:26:40.912Z,10.75
2022-08-28T15:29:12.112Z,10.27
2022-08-28T15:31:43.983Z,10.68
2022-08-28T15:34:17.227Z,12.75
2022-08-28T15:36:54.750Z,11.45
2022-08-28T15:39:41.992Z,9.50
2022-08-28T15:42:11.458Z,7.32
2022-08-28T15:44:40.019Z,8.07
2022-08-28T15:47:09.343Z,9.23
2022-08-28T15:49:44.620Z,11.13
2022-08-28T15:52:16.975Z,10.13
2022-08-28T15:54:46.073Z,11.55
2022-08-28T15:57:14.151Z,11.98
2022-08-28T15:59:50.156Z,13.32
2022-08-28T16:02:19.539Z,10.05
2022-08-28T16:04:49.246Z,11.02
2022-08-28T16:07:17.706Z,10.00
2022-08-28T16:09:46.041Z,17.92
2022-08-28T16:12:14.273Z,11.40
2022-08-28T16:14:42.395Z,9.32
2022-08-28T16:17:11.446Z,11.85
2022-08-28T16:19:40.776Z,12.95
2022-08-28T16:22:12.010Z,8.02
2022-08-28T16:24:40.242Z,10.70
2022-08-28T16:27:11.930Z,12.05
2022-08-28T16:29:43.733Z,12.75
2022-08-28T16:32:12.574Z,13.90
2022-08-28T16:34:40.987Z,13.93
2022-08-28T16:37:19.608Z,14.73
2022-08-28T16:39:49.482Z,10.45
2022-08-28T16:42:17.550Z,14.27
2022-08-28T16:44:45.723Z,17.05
2022-08-28T16:47:13.749Z,14.50
2022-08-28T16:49:41.828Z,13.43
2022-08-28T16:52:09.894Z,13.02
2022-08-28T16:54:47.447Z,11.25
2022-08-28T16:57:17.320Z,12.70
2022-08-28T16:59:45.469Z,12.77
2022-08-28T17:02:13.608Z,13.50
2022-08-28T17:04:41.973Z,14.77
2022-08-28T17:07:10.174Z,11.80
2022-08-28T17:09:39.657Z,14.45
2022-08-28T17:12:08.139Z,14.32
2022-08-28T17:14:40.050Z,20.42
2022-08-28T17:17:08.117Z,15.73
2022-08-28T17:19:38.147Z,19.80
2022-08-28T17:22:24.077Z,18.35
2022-08-28T17:24:58.829Z,14.50
2022-08-28T17:27:27.030Z,17.30
2022-08-28T17:29:55.154Z,18.85
2022-08-28T17:32:23.185Z,19.48
2022-08-28T17:34:51.291Z,20.75
2022-08-28T17:37:20.672Z,17.08
2022-08-28T17:39:49.018Z,17.10
2022-08-28T17:42:18.563Z,17.33
2022-08-28T17:44:46.938Z,18.90
2022-08-28T17:47:15.276Z,25.65
2022-08-28T17:49:43.687Z,13.82
2022-08-28T17:52:11.744Z,11.32
2022-08-28T17:54:39.851Z,13.57
2022-08-28T17:57:08.184Z,12.07
2022-08-28T17:59:38.208Z,11.15
2022-08-28T18:02:06.623Z,10.63
2022-08-28T18:04:35.118Z,10.70
2022-08-28T18:07:03.212Z,10.88
2022-08-28T18:09:31.354Z,8.63
2022-08-28T18:11:59.459Z,7.43
2022-08-28T18:14:27.637Z,7.22
2022-08-28T18:16:57.121Z,8.85
2022-08-28T18:19:25.402Z,10.25
2022-08-28T18:21:53.713Z,10.35
2022-08-28T18:24:22.055Z,9.10
2022-08-28T18:26:50.166Z,8.93
2022-08-28T18:29:18.408Z,8.93
2022-08-28T18:31:46.729Z,7.55
2022-08-28T18:34:16.565Z,8.45
2022-08-28T18:36:44.989Z,10.25
2022-08-28T18:39:13.411Z,11.32
2022-08-28T18:41:45.364Z,12.48
2022-08-28T18:44:15.234Z,9.85
2022-08-28T18:46:45.262Z,6.80
2022-08-28T18:49:15.701Z,9.07
2022-08-28T18:51:45.327Z,8.30
2022-08-28T18:54:16.442Z,11.65
2022-08-28T18:56:45.333Z,9.48
2022-08-28T18:59:15.342Z,8.35
2022-08-28T19:01:43.738Z,8.70
2022-08-28T19:04:11.997Z,12.52
2022-08-28T19:06:42.267Z,8.90
2022-08-28T19:09:20.255Z,7.28
2022-08-28T19:11:49.200Z,7.43
2022-08-28T19:14:17.626Z,9.07
2022-08-28T19:16:47.463Z,8.90
2022-08-28T19:19:16.446Z,11.23
2022-08-28T19:21:46.266Z,5.40
2022-08-28T19:24:17.679Z,6.38
2022-08-28T19:26:46.391Z,5.30
2022-08-28T19:29:15.160Z,8.68
2022-08-28T19:31:43.770Z,5.85
2022-08-28T19:34:13.027Z,5.60
2022-08-28T19:36:42.706Z,6.80
2022-08-28T19:39:12.906Z,7.18
2022-08-28T19:41:41.366Z,5.57
2022-08-28T19:44:09.731Z,5.35
2022-08-28T19:46:39.823Z,6.10
2022-08-28T19:49:08.609Z,6.03
2022-08-28T19:51:38.184Z,5.72
2022-08-28T19:54:10.986Z,6.78
2022-08-28T19:56:40.453Z,5.60
2022-08-28T19:59:08.922Z,5.65
2022-08-28T20:01:39.650Z,4.45
2022-08-28T20:04:13.445Z,6.38
2022-08-28T20:06:41.548Z,7.35
2022-08-28T20:09:12.868Z,4.40
2022-08-28T20:11:44.984Z,6.18
2022-08-28T20:14:13.059Z,5.07
2022-08-28T20:16:45.235Z,5.47
2022-08-28T20:19:14.610Z,7.10
2022-08-28T20:21:45.153Z,8.20
2022-08-28T20:24:17.592Z,9.15
2022-08-28T20:26:47.164Z,4.80
2022-08-28T20:29:15.676Z,4.80
2022-08-28T20:31:47.252Z,5.20
2022-08-28T20:34:18.525Z,5.47
2022-08-28T20:36:46.582Z,6.38
2022-08-28T20:39:15.568Z,4.45
2022-08-28T20:41:44.671Z,4.75
2022-08-28T20:44:16.339Z,6.50
2022-08-28T20:46:51.081Z,5.90
2022-08-28T20:49:22.099Z,8.40
2022-08-28T20:52:01.357Z,5.78
2022-08-28T20:54:32.016Z,4.78
2022-08-28T20:57:03.005Z,6.72
2022-08-28T20:59:39.333Z,6.93
2022-08-28T21:02:11.720Z,4.80
2022-08-28T21:04:40.911Z,4.90
2022-08-28T21:07:09.517Z,7.07
2022-08-28T21:10:04.055Z,5.32
2022-08-28T21:12:25.743Z,3.95
2022-08-28T21:14:55.217Z,5.93
2022-08-28T21:17:29.766Z,5.63
2022-08-28T21:20:00.139Z,4.63
2022-08-28T21:22:28.611Z,5.45
2022-08-28T21:24:56.775Z,5.43
2022-08-28T21:27:24.909Z,7.43
2022-08-28T21:29:56.473Z,3.70
2022-08-28T21:32:24.559Z,8.73
2022-08-28T21:34:52.763Z,9.95
2022-08-28T21:37:21.033Z,5.53
2022-08-28T21:39:49.111Z,5.30
2022-08-28T21:42:17.184Z,7.95
2022-08-28T21:44:51.235Z,5.65
2022-08-28T21:47:23.051Z,7.45
2022-08-28T21:49:51.816Z,8.00
2022-08-28T21:52:21.068Z,7.85
2022-08-28T21:54:49.629Z,7.32
2022-08-28T21:57:18.492Z,6.35
2022-08-28T21:59:46.510Z,6.97
2022-08-28T22:02:14.601Z,7.65
2022-08-28T22:04:44.099Z,8.07
2022-08-28T22:07:14.052Z,9.88
2022-08-28T22:09:42.169Z,8.75
2022-08-28T22:12:10.857Z,8.77
2022-08-28T22:14:39.584Z,7.22
2022-08-28T22:17:11.817Z,7.78
2022-08-28T22:19:40.490Z,7.40
2022-08-28T22:22:28.389Z,9.05
2022-08-28T22:24:56.540Z,8.27
2022-08-28T22:27:24.626Z,9.00
2022-08-28T22:29:52.726Z,9.13
2022-08-28T22:32:25.467Z,10.15
2022-08-28T22:34:55.778Z,10.73
2022-08-28T22:37:25.848Z,11.63
2022-08-28T22:39:54.122Z,8.80
2022-08-28T22:42:23.091Z,9.07
2022-08-28T22:44:51.314Z,10.93
2022-08-28T22:47:19.489Z,8.35
2022-08-28T22:49:47.670Z,9.30
2022-08-28T22:52:16.439Z,9.57
2022-08-28T22:54:46.402Z,9.38
2022-08-28T22:57:15.080Z,10.20
2022-08-28T22:59:43.204Z,10.05
2022-08-28T23:02:12.176Z,9.93
2022-08-28T23:04:40.762Z,11.90
2022-08-28T23:07:08.821Z,13.73
2022-08-28T23:09:37.354Z,13.50
2022-08-28T23:12:07.590Z,13.05
2022-08-28T23:14:35.669Z,11.68
2022-08-28T23:17:03.804Z,13.18
2022-08-28T23:19:32.516Z,11.30
2022-08-28T23:22:01.242Z,11.90
2022-08-28T23:24:30.111Z,14.10
2022-08-28T23:27:09.324Z,13.43
2022-08-28T23:29:47.780Z,13.52
2022-08-28T23:32:21.683Z,13.25
2022-08-28T23:34:50.163Z,15.98
2022-08-28T23:37:18.963Z,14.50
2022-08-28T23:39:47.039Z,15.02
2022-08-28T23:42:15.757Z,15.23
2022-08-28T23:44:43.841Z,14.27
2022-08-28T23:47:15.041Z,17.25
2022-08-28T23:49:43.549Z,13.73
2022-08-28T23:52:12.185Z,13.95
2022-08-28T23:54:40.366Z,15.18
2022-08-28T23:57:09.294Z,15.05
2022-08-28T23:59:39.270Z,15.65
